EGYPTAIR UPDATES

JULIAN BRAY ++44(0)1733 345581

http://www.freelancedirectory.org/?name=Julian.Bray.aviation.comment

(ISDN BROADCAST LINK ++44(0)1733 345 020) all codecs G.722 & ATX Developed for use in ISDN remote broadcasting, G.722 is the original wideband speech codec to be standardized by the ITU-T. By sampling the speech signal at 16 kHz, G.722 more than doubles the encoded speech information, providing richer sound and better clarity than narrowband speech codecs. ( (ISDN2 BT BOX INSTALLED AT HOME: LIVE LINKS AVAILABLE AROUND THE CLOCK

Book slot on landline 01733 345581

Mob: 07944 217476 http://www.aviationcomment.com/ E&OE

http://www.freelancedirectory.org/?name=Julian.Bray.aviation.comment

COVERING TRANSPORTATION & ASSOCIATED POLITICAL ISSUES IN ALL FORMS plus RELATED INDUSTRIES including AEROSPACE, COMPUTER NETWORKS, RAIL, AVIATION, CRUISE, FERRIES, MERCHANT MARITIME, MILITARY, TRAVEL & HOLIDAY INDUSTRIES, CAA REPORTS, TRAVEL AGENTS, ATOL ISSUES, CIVIL & COMMERCIAL AVIATION. AIRSHOW ORGANISATION & LOGISTICS.Contact numbers 01733 345581 OR Trusty Nokia Mobile: 07944 217 476 OFFICE: 01733 345581 and answerphone email: julianbray@aol.com

BROADCAST ISDN2 LINE: 01733 345020 ISDN DIGITAL DIAL-UP only. [ BH VENDOR #10476453 add PE28xl ]

SKYPE: JULIAN.BRAY.UK (directly wired Ethernet connection on high speed Virginmedia cable) GLENSOUND ISDN GSGC5 LOCATION UNITS FOR PROFESSIONAL DRY HIRE

http://www.freelancedirectory.org/?name=Julian.Bray.aviation.comment Julian Bray provides: Opinion, comment, forward thinking speculation, keynote presentations and workshops for corporate organisations on Travel, Cruise & Aviation: conflict zones, terrorist impact, drone (UAV) issues, safety (black boxes, emergencies), airline operations, aviation finance, political implications, and all forms of incident risk. He operated at board level with several airline and aviation groups, including Alitalia, British Island Airways, British Airways, Galileo , British Aerospace, Skyways, former CEO City firm Leadenhall Assoc. Founder CNS City News Service. Director NTN Television News (joint co. with ITV Wales TWW) Debretts People 2017 and in launch edition of PRWeek Black Book. Journalist and Broadcaster. After-dinner speaker and presenter.

Direct links to a selection of television and radio contributions can be found at foot of this page. Scroll down. Join the conversation here or on Twitter at @aviationcomment

A retweet, comment or other publication by any means does not constitute an endorsement. Quoted Content subject to creditline 'Julian Bray' NUJ Life Member and Equity Full Member. During career an active MCIPR, MMC & MBDS Main UK telephone and prime contact number 01733 345581

Mob: 07944 217476

http://www.freelancedirectory.org/?name=Julian.Bray.aviation.comment

ISDN2 Loop Test (by arrangement) 01733 345020

Download the new CAA DRONECODE HERE : http://dronesafe.uk/wp-content/uploads/2016/11/Dronecode.pdf



Sunday, 26 April 2015

THY Airbus A320 at Istanbul on Apr 25th 2015, hard landing,wing and engine ground contact, pilot lifts off for a go-around, engine problem, gear problem, gear collapse, runway excursion




On April 25th 2015, a Turkish Airlines Airbus A320-200, (registration TC-JPE) on flight TK-1878 from Milan Malpensa (Italy) to Istanbul (Turkey) with 97 passengers, landed on Istanbul Ataturk Airport's runway 05 at 10:22L (07:22Z) but rolled right just before touchdown, causing the right engine and wing to contact the runway and a hard touch down, reports www. Aeroinside.com


The crew initiated a go-around, then declared emergency due to an engine (V2527) being inoperative. The crew subsequently reported an unsafe gear indication.


The aircraft positioned for an emergency landing on runway 35L, touched down about 20 minutes after the go around, but with the right main gear collapsed the aircraft skidded on its right engine, with sparks and smoke trailing the engine, and veered right off the runway spinning nearly 180 degrees.


The aircraft was evacuated via slides while emergency services started to spray the aircraft. There were no injuries, the aircraft received substantial damage to the right hand main gear, right hand engine and its pylon as well as to leading and trailing edge high lift devices at the right hand wing.

The airline confirmed the aircraft went off the runway during an emergency landing, the 97 passenges have been safely evacuated, there are no injuries.

A passenger later reported the aircraft was on its first approach to Ataturk's Airport uneventfully until about 100 feet AGL when the aircraft suddenly rolled heavily to the right and fell down onto the runway, while on the ground the aircraft was still tilted to the right, the engines accelerated and the aircraft became airborne again, the passenger thought the right main gear had collapsed at that point already.


While positioning for the second approach another passenger yelled "Fire".


Cabin crew instructed the passengers to brace for landing. The second touchdown was smooth, however, there were scraping sounds from the right, the passenger did not notice a gear collapse during roll out, only after the aircraft had slowed significantly the aircraft began to veer to the right.


 The doors were opened, passengers directed to the left forward and right rear doors for evacuation, when the right hand overwing exits were opened foam from the fire engines entered the cabin. About 5 minutes after landing buses arrived and took the passengers to the terminal.

Metars:
LTBA 250920Z 24007KT CAVOK 15/07 Q1020 NOSIG
LTBA 250850Z 23007KT CAVOK 16/06 Q1020 NOSIG
LTBA 250820Z 22006KT 200V260 CAVOK 15/06 Q1020 NOSIG
LTBA 250750Z 20004KT 160V240 CAVOK 15/07 Q1020 NOSIG
LTBA 250720Z 17005KT 140V200 CAVOK 15/05 Q1020 NOSIG
LTBA 250650Z 15008KT CAVOK 16/04 Q1020 NOSIG
LTBA 250620Z 15009KT CAVOK 16/03 Q1020 NOSIG
LTBA 250550Z 18004KT 150V230 CAVOK 14/05 Q1020 NOSIG
LTBA 250520Z 17004KT 120V240 CAVOK 13/07 Q1020 NOSIG
LTBA 250450Z VRB01KT CAVOK 12/08 Q1020 NOSIG
LTBA 250420Z VRB02KT CAVOK 11/08 Q1020 NOSIG






JULIAN BRAY ++44(0)1733 345581, Journalist, Broadcaster, Aviation Security & Operatio(0)1733 345020 (DUAL CODEC) SKYPE: JULIAN.BRAY.UK e&oe Cell: 07944ns Expert, Travel / Cruise Industry, EQUITY, NUJ, Broadcast COOBE ISDN ++44  217476 or iPhone 0743 530 3145 #VENDOR 10476453 http://feeds.feedburner.com/BraysDuckhouseBlog  
Post a Comment
MEDIABLOGLINES: Key in your long URL to make tiny:

http://webguidePeople.com

JULIAN BRAY ++44(0)1733 345581 BROADCAST ISDN ++44(0)1733 345 020 all codecs

MOBILE: 07944 217476

AVIATION SECURITY EXPERT, AIRLINE OPERATIONS & NATIONAL SECURITY ISSUES.

BROADCASTER, COLUMNIST & JOURNALIST. NUJ & FULL EQUITY MEMBER.

IMMEDIATE LIVE BROADCASTING VIA OWN ISDN COOBE, STUDIO & HIGH SPEED BROADBAND SKYPE

ISDN +44 (0) 1733 345020.

OFFICE +44 (0) 1733 345581

http://www.journalistdirectory.com/journalist/XLgEm/Julian-Bray




AVIATION & CRUISE, MARTIME INCIDENTS, SAFETY ISSUES, TRAVEL THREATS & PERILS, TERRORISM ISSUES, WORLD TRAVEL & INSURANCE COVER ISSUES, CONFLICT ZONES, LONDON RUNWAY, FEATURES & CORRESPONDENT RESEARCH PACKAGES. NATIONAL & LOCAL POLITICS, LAW & ORDER, LITIGATION SUPPORT.

"Adept at holding national and international politicians and business people to account, has a 'Marmite' but considered approach to politics and always well prepared" Iain Wilson

Julian Bray broadcasts and comments via ISDN +44 (0)1733 345020 (GLENSOUND C5 Dual Codec), VoIP and SKYPE >>> JULIAN.BRAY.UK <<< mobile 07944 217 476

BBC Contributor 10476453

LANDLINE number in the UK is +44(0) 1733 345581 Use this number to pre-brief or to book link.

TELEVSION AND RADIO LIVE INTERVIEWS AND CONTRIBUTIONS

RECENT FEEDS:

RUSSIA METROJET, GERMANWINGS, MH17 INCIDENTS and other RECENT TV NEWS & RADIO AUDIO FEEDS

LASER PENS BBC NEWS

Amelia Erhart Mystery BBC Wales

http://www.bbc.co.uk/programmes/b08rg0nx

Julian Bray Radio Podcasts

http://talkradio.co.uk/julian-bray

https://www.youtube.com/watch?v=weCHZDsnpEI

https://audioboom.com/boos/5133360-easyjet-results-with-aviation-expert-julian-bray

https://www.rt.com/op-edge/360687-military-intel-mh17-include/ September 2016

#BorisJohnson 'right for all the wrong reasons' to dismiss Heathrow, says @JULIANBRAY - bit.ly/2cunT2Z pic.twitter.com/Jw3PwFOasm

http://www.abc.net.au/radionational/programs/breakfast/russian-airline-rules-out-mechanical-failure-or/6907142

https://soundcloud.com/rttv/bray-7k9268?utm_source=soundcloud&utm_campaign=wtshare&utm_medium=Facebook&utm_content=https%3A%2F%2Fsoundcloud.com%2Frttv%2Fbray-7k9268

http://www.pri.org/stories/2012-01-16/why-modern-navigational-technology-didnt-prevent-costa-concordia-accident

https://twitter.com/VictoriaLIVE/status/661125924432146432

http://rinf.com/alt-news/tag/julian-bray/

http://www.marketplace.org/2012/01/16/business/cruise-ship-industry-impacted-disaster

http://www.pri.org/stories/2012-01-16/why-modern-navigational-technology-didnt-prevent-costa-concordia-accident

https://www.youtube.com/watch?v=yiKsLJxc6WA

https://soundcloud.com/julian-charles-braybray

https://soundcloud.com/julian-charles-bray

https://youtu.be/yiKsLJxc6WA?t=1m12s

http://edition.cnn.com/videos/world/2015/03/24/idesk-bray-intv-germanwings-descent.cnn

https://soundcloud.com/rttv/airbus-co-pilot

http://www.itnsource.com/shotlist//ITN/2012/03/05/T05031202/http://www.itnsource.com/en/shotlist/ITN/2010/11/04/T04111005/#videoPopUpDiv

https://audioboom.com/boos/3579946-why-has-the-low-cost-airline-industry-been-thriving-morningmoney

http://talkradio.co.uk/news/airport-expansion-boris-johnson-right-all-wrong-reasons-dismiss-heathrow-1609164227

http://www.msn.com/en-us/news/royalbaby/russian-passenger-jet-crashes-in-central-sinai/vp-BBmEGu9

http://edition.cnn.com/videos/world/2015/10/31/russian-passenger-jet-plane-crashed.cnn

https://audioboom.com/boos/3289201-billybambrough-brings-us-the-latest-from-the-paris-air-show-morningmoney

http://edition.cnn.com/TRANSCRIPTS/1510/31/cnr.22.html

https://soundcloud.com/rttv/bray-7k9268?utm_source=soundcloud&utm_campaign=wtshare&utm_medium=Facebook&utm_content=https%3A%2F%2Fsoundcloud.com%2Frttv%2Fbray-7k9268

https://www.rt.com/op-edge/323287-su24-fighter-russia-turkey-syria/ Scroll down final VT

https://audioboom.com/boos/3918847-a-new-aviation-strategy-julianbray-oliver__clark-talk-on-the-europeancommission-s-airline-announcement

https://audioboom.com/boos/3933313-julianbray-talks-on-the-airport-expansion-delay-the-heathrow-bid-is-frankly-illegal

https://audioboom.com/boos/4241311-a-closer-look-at-the-deal-to-buy-london-cityairport-with-aerospace-specialist-julianbray


http://www.cbc.ca/i/caffeine/syndicate/?mediaId=2685621754 AIR DUBAI CRASH MARCH 2016 Television 2-way with CBC Canada via 'upmarket' SKYPE

https://ca.news.yahoo.com/video/plane-circled-airport-bad-weather-110053170.html AIR DUBAI CRASH 19/03/2016 Julian Bray first reaction

https://audioboom.com/boos/4368310-is-the-aerospace-sector-in-trouble-julian-bray-discusses-as-boeing-plans-to-cut-thousands-of-jobs

Julian Bray Broadcaster Radio Podcasts Selection